Terminal Aerodrome Forecast
Issued by NWS Pueblo, CO

Home | Current Version | Previous Version | Text Only | Print | Product List | Glossary On
Versions: 1 2 3 4 5 6 7 8 9 10 11 12 13 14 15 16 17 18 19 20 21 22 23 24 25 26 27 28 29 30 31 32 33 34 35 36 37 38 39 40 41 42 43 44 45 46 47 48 49 50
981
FTUS45 KPUB 282202 AAA
TAFCOS
TAF AMD
KCOS 282202Z 2822/2918 18010G20KT P6SM -RASN VCSH FEW007 BKN018
      OVC024
      TEMPO 2822/2901 3SM -SHRASN BR BKN015
     FM290100 12010KT 2SM -SHSN BR OVC010
     FM290500 06012KT 3/4SM -SN BR OVC010=

USA.gov is the U.S. government's official web portal to all federal, state and local government web resources and services.